sensor_id;sensor_type;location;lat;lon;timestamp;P1;durP1;ratioP1;P2;durP2;ratioP2
17091;SDS011;8661;45.700;4.880;2023-04-15T00:00:53;0.20;;;0.20;;
17091;SDS011;8661;45.700;4.880;2023-04-15T00:03:21;0.13;;;0.13;;
17091;SDS011;8661;45.700;4.880;2023-04-15T00:05:48;0.20;;;0.20;;
17091;SDS011;8661;45.700;4.880;2023-04-15T00:08:16;0.10;;;0.10;;
17091;SDS011;8661;45.700;4.880;2023-04-15T00:10:44;0.20;;;0.20;;
17091;SDS011;8661;45.700;4.880;2023-04-15T00:13:12;0.27;;;0.27;;
17091;SDS011;8661;45.700;4.880;2023-04-15T00:15:40;0.20;;;0.20;;
17091;SDS011;8661;45.700;4.880;2023-04-15T00:18:07;0.23;;;0.23;;
17091;SDS011;8661;45.700;4.880;2023-04-15T00:20:34;0.20;;;0.20;;
17091;SDS011;8661;45.700;4.880;2023-04-15T00:23:02;0.20;;;0.20;;
17091;SDS011;8661;45.700;4.880;2023-04-15T00:25:29;0.20;;;0.20;;
17091;SDS011;8661;45.700;4.880;2023-04-15T00:27:57;0.30;;;0.30;;
17091;SDS011;8661;45.700;4.880;2023-04-15T00:30:23;0.20;;;0.20;;
17091;SDS011;8661;45.700;4.880;2023-04-15T00:32:52;0.20;;;0.20;;
17091;SDS011;8661;45.700;4.880;2023-04-15T00:35:19;0.10;;;0.10;;
17091;SDS011;8661;45.700;4.880;2023-04-15T00:37:47;0.20;;;0.20;;
17091;SDS011;8661;45.700;4.880;2023-04-15T00:40:15;0.13;;;0.13;;
17091;SDS011;8661;45.700;4.880;2023-04-15T00:42:44;0.20;;;0.20;;
17091;SDS011;8661;45.700;4.880;2023-04-15T00:45:10;0.20;;;0.20;;
17091;SDS011;8661;45.700;4.880;2023-04-15T00:47:38;0.20;;;0.20;;
17091;SDS011;8661;45.700;4.880;2023-04-15T00:50:09;0.27;;;0.27;;
17091;SDS011;8661;45.700;4.880;2023-04-15T00:52:37;0.57;;;0.40;;
17091;SDS011;8661;45.700;4.880;2023-04-15T00:55:05;0.30;;;0.30;;
17091;SDS011;8661;45.700;4.880;2023-04-15T00:57:35;0.20;;;0.20;;
17091;SDS011;8661;45.700;4.880;2023-04-15T01:00:03;0.20;;;0.20;;
17091;SDS011;8661;45.700;4.880;2023-04-15T01:02:32;0.20;;;0.20;;
17091;SDS011;8661;45.700;4.880;2023-04-15T01:05:00;0.20;;;0.20;;
17091;SDS011;8661;45.700;4.880;2023-04-15T01:07:29;0.20;;;0.20;;
17091;SDS011;8661;45.700;4.880;2023-04-15T01:09:56;0.33;;;0.33;;
17091;SDS011;8661;45.700;4.880;2023-04-15T01:12:23;0.23;;;0.23;;
17091;SDS011;8661;45.700;4.880;2023-04-15T01:14:52;0.20;;;0.20;;
17091;SDS011;8661;45.700;4.880;2023-04-15T01:17:20;0.20;;;0.20;;
17091;SDS011;8661;45.700;4.880;2023-04-15T01:19:47;0.20;;;0.20;;
17091;SDS011;8661;45.700;4.880;2023-04-15T01:22:14;0.20;;;0.20;;
17091;SDS011;8661;45.700;4.880;2023-04-15T01:24:42;0.20;;;0.20;;
17091;SDS011;8661;45.700;4.880;2023-04-15T01:27:23;0.20;;;0.20;;
17091;SDS011;8661;45.700;4.880;2023-04-15T01:29:51;0.40;;;0.40;;
17091;SDS011;8661;45.700;4.880;2023-04-15T01:32:19;0.30;;;0.30;;
17091;SDS011;8661;45.700;4.880;2023-04-15T01:34:46;0.20;;;0.20;;
17091;SDS011;8661;45.700;4.880;2023-04-15T01:37:13;3.87;;;1.63;;
17091;SDS011;8661;45.700;4.880;2023-04-15T01:39:41;2.10;;;1.60;;
17091;SDS011;8661;45.700;4.880;2023-04-15T01:42:08;2.40;;;1.47;;
17091;SDS011;8661;45.700;4.880;2023-04-15T01:44:38;3.23;;;1.43;;
17091;SDS011;8661;45.700;4.880;2023-04-15T01:47:05;2.83;;;1.53;;
17091;SDS011;8661;45.700;4.880;2023-04-15T01:49:33;3.10;;;1.60;;
17091;SDS011;8661;45.700;4.880;2023-04-15T01:52:01;2.30;;;1.77;;
17091;SDS011;8661;45.700;4.880;2023-04-15T01:54:28;2.50;;;1.60;;
17091;SDS011;8661;45.700;4.880;2023-04-15T01:56:55;3.33;;;1.27;;
17091;SDS011;8661;45.700;4.880;2023-04-15T01:59:23;1.90;;;1.37;;
17091;SDS011;8661;45.700;4.880;2023-04-15T02:01:52;2.90;;;1.40;;
17091;SDS011;8661;45.700;4.880;2023-04-15T02:04:20;4.47;;;1.90;;
17091;SDS011;8661;45.700;4.880;2023-04-15T02:06:47;4.17;;;1.73;;
17091;SDS011;8661;45.700;4.880;2023-04-15T02:09:14;2.30;;;1.60;;
17091;SDS011;8661;45.700;4.880;2023-04-15T02:11:42;1.67;;;1.43;;
17091;SDS011;8661;45.700;4.880;2023-04-15T02:14:10;3.37;;;1.50;;
17091;SDS011;8661;45.700;4.880;2023-04-15T02:16:38;1.60;;;1.20;;
17091;SDS011;8661;45.700;4.880;2023-04-15T02:19:07;2.30;;;1.40;;
17091;SDS011;8661;45.700;4.880;2023-04-15T02:21:34;2.60;;;1.40;;
17091;SDS011;8661;45.700;4.880;2023-04-15T02:24:01;4.30;;;1.70;;
17091;SDS011;8661;45.700;4.880;2023-04-15T02:26:28;4.53;;;1.80;;
17091;SDS011;8661;45.700;4.880;2023-04-15T02:28:56;5.43;;;1.80;;
17091;SDS011;8661;45.700;4.880;2023-04-15T02:31:23;2.93;;;1.50;;
17091;SDS011;8661;45.700;4.880;2023-04-15T02:33:50;2.83;;;1.40;;
17091;SDS011;8661;45.700;4.880;2023-04-15T02:36:18;3.37;;;1.63;;
17091;SDS011;8661;45.700;4.880;2023-04-15T02:38:46;2.40;;;1.70;;
17091;SDS011;8661;45.700;4.880;2023-04-15T02:41:12;3.40;;;1.73;;
17091;SDS011;8661;45.700;4.880;2023-04-15T02:43:39;0.20;;;0.20;;
17091;SDS011;8661;45.700;4.880;2023-04-15T02:46:06;0.40;;;0.40;;
17091;SDS011;8661;45.700;4.880;2023-04-15T02:48:36;0.20;;;0.20;;
17091;SDS011;8661;45.700;4.880;2023-04-15T02:51:10;0.20;;;0.20;;
17091;SDS011;8661;45.700;4.880;2023-04-15T02:53:39;0.20;;;0.20;;
17091;SDS011;8661;45.700;4.880;2023-04-15T02:56:06;0.30;;;0.30;;
17091;SDS011;8661;45.700;4.880;2023-04-15T02:58:33;0.20;;;0.20;;
17091;SDS011;8661;45.700;4.880;2023-04-15T03:01:00;0.20;;;0.20;;
17091;SDS011;8661;45.700;4.880;2023-04-15T03:03:27;0.30;;;0.30;;
17091;SDS011;8661;45.700;4.880;2023-04-15T03:05:54;0.30;;;0.30;;
17091;SDS011;8661;45.700;4.880;2023-04-15T03:08:21;0.20;;;0.20;;
17091;SDS011;8661;45.700;4.880;2023-04-15T03:10:50;0.20;;;0.20;;
17091;SDS011;8661;45.700;4.880;2023-04-15T03:13:18;0.30;;;0.30;;
17091;SDS011;8661;45.700;4.880;2023-04-15T03:15:46;0.30;;;0.30;;
17091;SDS011;8661;45.700;4.880;2023-04-15T03:18:12;0.40;;;0.40;;
17091;SDS011;8661;45.700;4.880;2023-04-15T03:20:39;0.20;;;0.20;;
17091;SDS011;8661;45.700;4.880;2023-04-15T03:23:06;0.30;;;0.30;;
17091;SDS011;8661;45.700;4.880;2023-04-15T03:25:33;0.20;;;0.20;;
17091;SDS011;8661;45.700;4.880;2023-04-15T03:28:02;0.20;;;0.20;;
17091;SDS011;8661;45.700;4.880;2023-04-15T03:30:30;0.20;;;0.20;;
17091;SDS011;8661;45.700;4.880;2023-04-15T03:32:57;0.30;;;0.30;;
17091;SDS011;8661;45.700;4.880;2023-04-15T03:35:23;0.30;;;0.30;;
17091;SDS011;8661;45.700;4.880;2023-04-15T03:37:50;0.20;;;0.20;;
17091;SDS011;8661;45.700;4.880;2023-04-15T03:40:17;0.20;;;0.20;;
17091;SDS011;8661;45.700;4.880;2023-04-15T03:42:44;0.20;;;0.20;;
17091;SDS011;8661;45.700;4.880;2023-04-15T03:45:12;0.27;;;0.27;;
17091;SDS011;8661;45.700;4.880;2023-04-15T03:47:39;0.20;;;0.20;;
17091;SDS011;8661;45.700;4.880;2023-04-15T03:50:07;0.20;;;0.20;;
17091;SDS011;8661;45.700;4.880;2023-04-15T03:52:34;0.20;;;0.20;;
17091;SDS011;8661;45.700;4.880;2023-04-15T03:55:01;0.30;;;0.30;;
17091;SDS011;8661;45.700;4.880;2023-04-15T03:57:28;0.20;;;0.20;;
17091;SDS011;8661;45.700;4.880;2023-04-15T03:59:55;1.23;;;0.80;;
17091;SDS011;8661;45.700;4.880;2023-04-15T04:02:23;0.30;;;0.30;;
17091;SDS011;8661;45.700;4.880;2023-04-15T04:04:50;0.20;;;0.20;;
17091;SDS011;8661;45.700;4.880;2023-04-15T04:07:17;0.40;;;0.40;;
17091;SDS011;8661;45.700;4.880;2023-04-15T04:09:44;0.20;;;0.20;;
17091;SDS011;8661;45.700;4.880;2023-04-15T04:12:11;0.20;;;0.20;;
17091;SDS011;8661;45.700;4.880;2023-04-15T04:14:37;0.20;;;0.20;;
17091;SDS011;8661;45.700;4.880;2023-04-15T04:17:04;0.20;;;0.20;;
17091;SDS011;8661;45.700;4.880;2023-04-15T04:19:33;0.20;;;0.20;;
17091;SDS011;8661;45.700;4.880;2023-04-15T04:22:00;0.20;;;0.20;;
17091;SDS011;8661;45.700;4.880;2023-04-15T04:24:27;0.30;;;0.30;;
17091;SDS011;8661;45.700;4.880;2023-04-15T04:26:54;0.30;;;0.30;;
17091;SDS011;8661;45.700;4.880;2023-04-15T04:29:21;0.20;;;0.20;;
17091;SDS011;8661;45.700;4.880;2023-04-15T04:31:48;0.20;;;0.20;;
17091;SDS011;8661;45.700;4.880;2023-04-15T04:34:15;0.43;;;0.43;;
17091;SDS011;8661;45.700;4.880;2023-04-15T04:36:43;0.27;;;0.27;;
17091;SDS011;8661;45.700;4.880;2023-04-15T04:39:10;0.20;;;0.20;;
17091;SDS011;8661;45.700;4.880;2023-04-15T04:41:37;0.30;;;0.30;;
17091;SDS011;8661;45.700;4.880;2023-04-15T04:44:04;0.30;;;0.30;;
17091;SDS011;8661;45.700;4.880;2023-04-15T04:46:31;0.30;;;0.30;;
17091;SDS011;8661;45.700;4.880;2023-04-15T04:48:58;0.30;;;0.30;;
17091;SDS011;8661;45.700;4.880;2023-04-15T04:51:25;0.40;;;0.40;;
17091;SDS011;8661;45.700;4.880;2023-04-15T04:53:54;0.27;;;0.27;;
17091;SDS011;8661;45.700;4.880;2023-04-15T04:56:21;0.20;;;0.20;;
17091;SDS011;8661;45.700;4.880;2023-04-15T04:58:48;0.30;;;0.30;;
17091;SDS011;8661;45.700;4.880;2023-04-15T05:01:15;0.20;;;0.20;;
17091;SDS011;8661;45.700;4.880;2023-04-15T05:03:42;0.30;;;0.30;;
17091;SDS011;8661;45.700;4.880;2023-04-15T05:06:09;0.30;;;0.30;;
17091;SDS011;8661;45.700;4.880;2023-04-15T05:08:36;0.20;;;0.20;;
17091;SDS011;8661;45.700;4.880;2023-04-15T05:11:06;0.40;;;0.40;;
17091;SDS011;8661;45.700;4.880;2023-04-15T05:13:33;0.20;;;0.20;;
17091;SDS011;8661;45.700;4.880;2023-04-15T05:16:02;0.20;;;0.20;;
17091;SDS011;8661;45.700;4.880;2023-04-15T05:18:30;0.30;;;0.30;;
17091;SDS011;8661;45.700;4.880;2023-04-15T05:20:57;0.20;;;0.20;;
17091;SDS011;8661;45.700;4.880;2023-04-15T05:23:25;0.20;;;0.20;;
17091;SDS011;8661;45.700;4.880;2023-04-15T05:25:52;0.50;;;0.50;;
17091;SDS011;8661;45.700;4.880;2023-04-15T05:28:20;0.20;;;0.20;;
17091;SDS011;8661;45.700;4.880;2023-04-15T05:30:47;0.23;;;0.23;;
17091;SDS011;8661;45.700;4.880;2023-04-15T05:33:14;0.40;;;0.40;;
17091;SDS011;8661;45.700;4.880;2023-04-15T05:35:41;0.27;;;0.27;;
17091;SDS011;8661;45.700;4.880;2023-04-15T05:38:08;0.30;;;0.30;;
17091;SDS011;8661;45.700;4.880;2023-04-15T05:40:35;0.20;;;0.20;;
17091;SDS011;8661;45.700;4.880;2023-04-15T05:43:02;0.20;;;0.20;;
17091;SDS011;8661;45.700;4.880;2023-04-15T05:45:30;0.37;;;0.37;;
17091;SDS011;8661;45.700;4.880;2023-04-15T05:47:57;0.20;;;0.20;;
17091;SDS011;8661;45.700;4.880;2023-04-15T05:50:24;0.20;;;0.20;;
17091;SDS011;8661;45.700;4.880;2023-04-15T05:52:51;0.20;;;0.20;;
17091;SDS011;8661;45.700;4.880;2023-04-15T05:55:18;0.20;;;0.20;;
17091;SDS011;8661;45.700;4.880;2023-04-15T05:57:45;0.20;;;0.20;;
17091;SDS011;8661;45.700;4.880;2023-04-15T06:00:12;0.30;;;0.30;;
17091;SDS011;8661;45.700;4.880;2023-04-15T06:02:41;0.20;;;0.20;;
17091;SDS011;8661;45.700;4.880;2023-04-15T06:05:08;0.20;;;0.20;;
17091;SDS011;8661;45.700;4.880;2023-04-15T06:07:36;0.20;;;0.20;;
17091;SDS011;8661;45.700;4.880;2023-04-15T06:10:03;0.20;;;0.20;;
17091;SDS011;8661;45.700;4.880;2023-04-15T06:12:31;0.20;;;0.20;;
17091;SDS011;8661;45.700;4.880;2023-04-15T06:14:58;0.20;;;0.20;;
17091;SDS011;8661;45.700;4.880;2023-04-15T06:17:25;0.20;;;0.20;;
17091;SDS011;8661;45.700;4.880;2023-04-15T06:19:53;0.27;;;0.27;;
17091;SDS011;8661;45.700;4.880;2023-04-15T06:22:20;0.20;;;0.20;;
17091;SDS011;8661;45.700;4.880;2023-04-15T06:24:47;0.20;;;0.20;;
17091;SDS011;8661;45.700;4.880;2023-04-15T06:27:15;0.20;;;0.20;;
17091;SDS011;8661;45.700;4.880;2023-04-15T06:29:42;0.20;;;0.20;;
17091;SDS011;8661;45.700;4.880;2023-04-15T06:32:09;0.20;;;0.20;;
17091;SDS011;8661;45.700;4.880;2023-04-15T06:34:37;0.30;;;0.30;;
17091;SDS011;8661;45.700;4.880;2023-04-15T06:37:05;0.20;;;0.20;;
17091;SDS011;8661;45.700;4.880;2023-04-15T06:39:34;0.20;;;0.20;;
17091;SDS011;8661;45.700;4.880;2023-04-15T06:42:01;0.20;;;0.20;;
17091;SDS011;8661;45.700;4.880;2023-04-15T06:44:28;0.20;;;0.20;;
17091;SDS011;8661;45.700;4.880;2023-04-15T06:46:55;0.20;;;0.20;;
17091;SDS011;8661;45.700;4.880;2023-04-15T06:49:22;0.20;;;0.20;;
17091;SDS011;8661;45.700;4.880;2023-04-15T06:51:49;0.20;;;0.20;;
17091;SDS011;8661;45.700;4.880;2023-04-15T06:54:18;0.20;;;0.20;;
17091;SDS011;8661;45.700;4.880;2023-04-15T06:56:45;0.20;;;0.20;;
17091;SDS011;8661;45.700;4.880;2023-04-15T06:59:12;0.20;;;0.20;;
17091;SDS011;8661;45.700;4.880;2023-04-15T07:01:39;0.20;;;0.20;;
17091;SDS011;8661;45.700;4.880;2023-04-15T07:04:06;0.20;;;0.20;;
17091;SDS011;8661;45.700;4.880;2023-04-15T07:06:33;0.30;;;0.30;;
17091;SDS011;8661;45.700;4.880;2023-04-15T07:09:00;0.30;;;0.30;;
17091;SDS011;8661;45.700;4.880;2023-04-15T07:11:30;0.10;;;0.10;;
17091;SDS011;8661;45.700;4.880;2023-04-15T07:13:57;0.20;;;0.20;;
17091;SDS011;8661;45.700;4.880;2023-04-15T07:16:24;0.10;;;0.10;;
17091;SDS011;8661;45.700;4.880;2023-04-15T07:18:51;0.10;;;0.10;;
17091;SDS011;8661;45.700;4.880;2023-04-15T07:21:17;0.30;;;0.30;;
17091;SDS011;8661;45.700;4.880;2023-04-15T07:23:44;0.20;;;0.20;;
17091;SDS011;8661;45.700;4.880;2023-04-15T07:26:11;0.20;;;0.20;;
17091;SDS011;8661;45.700;4.880;2023-04-15T07:28:40;0.20;;;0.20;;
17091;SDS011;8661;45.700;4.880;2023-04-15T07:31:07;0.10;;;0.10;;
17091;SDS011;8661;45.700;4.880;2023-04-15T07:33:34;0.20;;;0.20;;
17091;SDS011;8661;45.700;4.880;2023-04-15T07:36:01;0.13;;;0.13;;
17091;SDS011;8661;45.700;4.880;2023-04-15T07:38:28;0.20;;;0.20;;
17091;SDS011;8661;45.700;4.880;2023-04-15T07:40:55;0.20;;;0.20;;
17091;SDS011;8661;45.700;4.880;2023-04-15T07:43:22;0.20;;;0.20;;
17091;SDS011;8661;45.700;4.880;2023-04-15T07:45:50;0.50;;;0.50;;
17091;SDS011;8661;45.700;4.880;2023-04-15T07:48:17;0.93;;;0.80;;
17091;SDS011;8661;45.700;4.880;2023-04-15T07:50:45;0.93;;;0.70;;
17091;SDS011;8661;45.700;4.880;2023-04-15T07:53:12;2.40;;;0.90;;
17091;SDS011;8661;45.700;4.880;2023-04-15T07:55:40;1.93;;;0.70;;
17091;SDS011;8661;45.700;4.880;2023-04-15T07:58:07;2.27;;;0.70;;
17091;SDS011;8661;45.700;4.880;2023-04-15T08:00:35;4.80;;;1.67;;
17091;SDS011;8661;45.700;4.880;2023-04-15T08:03:04;2.60;;;1.30;;
17091;SDS011;8661;45.700;4.880;2023-04-15T08:05:31;2.47;;;0.70;;
17091;SDS011;8661;45.700;4.880;2023-04-15T08:07:58;0.87;;;0.60;;
17091;SDS011;8661;45.700;4.880;2023-04-15T08:10:26;1.00;;;0.70;;
17091;SDS011;8661;45.700;4.880;2023-04-15T08:12:54;0.73;;;0.67;;
17091;SDS011;8661;45.700;4.880;2023-04-15T08:15:21;1.83;;;0.70;;
17091;SDS011;8661;45.700;4.880;2023-04-15T08:17:48;1.10;;;0.80;;
17091;SDS011;8661;45.700;4.880;2023-04-15T08:20:17;1.70;;;0.70;;
17091;SDS011;8661;45.700;4.880;2023-04-15T08:22:43;0.40;;;0.40;;
17091;SDS011;8661;45.700;4.880;2023-04-15T08:25:11;0.80;;;0.50;;
17091;SDS011;8661;45.700;4.880;2023-04-15T08:27:38;1.27;;;0.50;;
17091;SDS011;8661;45.700;4.880;2023-04-15T08:30:06;0.63;;;0.40;;
17091;SDS011;8661;45.700;4.880;2023-04-15T08:32:33;0.30;;;0.30;;
17091;SDS011;8661;45.700;4.880;2023-04-15T08:35:01;0.80;;;0.50;;
17091;SDS011;8661;45.700;4.880;2023-04-15T08:37:30;1.53;;;0.50;;
17091;SDS011;8661;45.700;4.880;2023-04-15T08:39:57;1.80;;;0.40;;
17091;SDS011;8661;45.700;4.880;2023-04-15T08:42:26;2.50;;;0.70;;
17091;SDS011;8661;45.700;4.880;2023-04-15T08:44:56;0.73;;;0.73;;
17091;SDS011;8661;45.700;4.880;2023-04-15T08:47:25;2.20;;;0.73;;
17091;SDS011;8661;45.700;4.880;2023-04-15T08:49:58;0.57;;;0.50;;
17091;SDS011;8661;45.700;4.880;2023-04-15T08:52:30;0.83;;;0.67;;
17091;SDS011;8661;45.700;4.880;2023-04-15T08:54:58;0.93;;;0.70;;
17091;SDS011;8661;45.700;4.880;2023-04-15T08:57:27;2.33;;;0.67;;
17091;SDS011;8661;45.700;4.880;2023-04-15T08:59:55;1.80;;;0.60;;
17091;SDS011;8661;45.700;4.880;2023-04-15T09:02:22;0.87;;;0.60;;
17091;SDS011;8661;45.700;4.880;2023-04-15T09:04:49;0.97;;;0.67;;
17091;SDS011;8661;45.700;4.880;2023-04-15T09:07:16;0.53;;;0.47;;
17091;SDS011;8661;45.700;4.880;2023-04-15T09:09:45;3.00;;;0.50;;
17091;SDS011;8661;45.700;4.880;2023-04-15T09:12:13;1.30;;;0.83;;
17091;SDS011;8661;45.700;4.880;2023-04-15T09:14:41;0.60;;;0.60;;
17091;SDS011;8661;45.700;4.880;2023-04-15T09:17:09;1.57;;;0.80;;
17091;SDS011;8661;45.700;4.880;2023-04-15T09:19:36;2.20;;;0.60;;
17091;SDS011;8661;45.700;4.880;2023-04-15T09:22:03;0.73;;;0.60;;
17091;SDS011;8661;45.700;4.880;2023-04-15T09:24:34;1.13;;;0.60;;
17091;SDS011;8661;45.700;4.880;2023-04-15T09:27:04;0.73;;;0.67;;
17091;SDS011;8661;45.700;4.880;2023-04-15T09:29:32;4.23;;;0.63;;
17091;SDS011;8661;45.700;4.880;2023-04-15T09:32:08;0.60;;;0.43;;
17091;SDS011;8661;45.700;4.880;2023-04-15T09:34:37;2.33;;;0.60;;
17091;SDS011;8661;45.700;4.880;2023-04-15T09:37:04;0.90;;;0.60;;
17091;SDS011;8661;45.700;4.880;2023-04-15T09:39:44;0.60;;;0.53;;
17091;SDS011;8661;45.700;4.880;2023-04-15T09:42:15;1.00;;;0.70;;
17091;SDS011;8661;45.700;4.880;2023-04-15T09:44:48;2.23;;;0.93;;
17091;SDS011;8661;45.700;4.880;2023-04-15T09:47:27;1.77;;;1.00;;
17091;SDS011;8661;45.700;4.880;2023-04-15T09:49:55;1.03;;;0.93;;
17091;SDS011;8661;45.700;4.880;2023-04-15T09:52:22;0.80;;;0.63;;
17091;SDS011;8661;45.700;4.880;2023-04-15T09:54:52;0.60;;;0.43;;
17091;SDS011;8661;45.700;4.880;2023-04-15T09:57:22;4.17;;;0.60;;
17091;SDS011;8661;45.700;4.880;2023-04-15T09:59:49;0.83;;;0.50;;
17091;SDS011;8661;45.700;4.880;2023-04-15T10:02:18;1.47;;;0.60;;
17091;SDS011;8661;45.700;4.880;2023-04-15T10:04:46;0.63;;;0.50;;
17091;SDS011;8661;45.700;4.880;2023-04-15T10:07:16;0.77;;;0.43;;
17091;SDS011;8661;45.700;4.880;2023-04-15T10:09:47;0.40;;;0.40;;
17091;SDS011;8661;45.700;4.880;2023-04-15T10:12:15;0.50;;;0.50;;
17091;SDS011;8661;45.700;4.880;2023-04-15T10:14:47;0.60;;;0.60;;
17091;SDS011;8661;45.700;4.880;2023-04-15T10:17:20;0.40;;;0.40;;
17091;SDS011;8661;45.700;4.880;2023-04-15T10:19:48;0.50;;;0.50;;
17091;SDS011;8661;45.700;4.880;2023-04-15T10:22:19;0.50;;;0.50;;
17091;SDS011;8661;45.700;4.880;2023-04-15T10:24:48;0.27;;;0.27;;
17091;SDS011;8661;45.700;4.880;2023-04-15T10:27:17;0.47;;;0.40;;
17091;SDS011;8661;45.700;4.880;2023-04-15T10:29:48;0.60;;;0.40;;
17091;SDS011;8661;45.700;4.880;2023-04-15T10:32:16;0.60;;;0.50;;
17091;SDS011;8661;45.700;4.880;2023-04-15T10:34:46;0.40;;;0.40;;
17091;SDS011;8661;45.700;4.880;2023-04-15T10:37:19;1.70;;;0.50;;
17091;SDS011;8661;45.700;4.880;2023-04-15T10:39:47;2.00;;;1.03;;
17091;SDS011;8661;45.700;4.880;2023-04-15T10:42:15;2.30;;;0.80;;
17091;SDS011;8661;45.700;4.880;2023-04-15T10:44:48;1.20;;;1.10;;
17091;SDS011;8661;45.700;4.880;2023-04-15T10:47:22;1.87;;;0.80;;
17091;SDS011;8661;45.700;4.880;2023-04-15T10:49:50;1.20;;;0.90;;
17091;SDS011;8661;45.700;4.880;2023-04-15T10:52:23;2.83;;;0.80;;
17091;SDS011;8661;45.700;4.880;2023-04-15T10:55:00;1.43;;;0.57;;
17091;SDS011;8661;45.700;4.880;2023-04-15T10:57:33;0.67;;;0.50;;
17091;SDS011;8661;45.700;4.880;2023-04-15T11:00:12;1.20;;;0.50;;
17091;SDS011;8661;45.700;4.880;2023-04-15T11:02:44;0.57;;;0.57;;
17091;SDS011;8661;45.700;4.880;2023-04-15T11:05:13;1.93;;;0.40;;
17091;SDS011;8661;45.700;4.880;2023-04-15T11:07:49;1.13;;;0.60;;
17091;SDS011;8661;45.700;4.880;2023-04-15T11:13:24;0.60;;;0.40;;
17091;SDS011;8661;45.700;4.880;2023-04-15T11:16:01;4.97;;;0.80;;
17091;SDS011;8661;45.700;4.880;2023-04-15T11:18:29;1.07;;;0.50;;
17091;SDS011;8661;45.700;4.880;2023-04-15T11:20:59;0.53;;;0.50;;
17091;SDS011;8661;45.700;4.880;2023-04-15T11:23:37;1.33;;;0.30;;
17091;SDS011;8661;45.700;4.880;2023-04-15T11:26:11;0.90;;;0.50;;
17091;SDS011;8661;45.700;4.880;2023-04-15T11:28:39;1.37;;;0.60;;
17091;SDS011;8661;45.700;4.880;2023-04-15T11:31:11;0.60;;;0.60;;
17091;SDS011;8661;45.700;4.880;2023-04-15T11:33:43;0.40;;;0.40;;
17091;SDS011;8661;45.700;4.880;2023-04-15T11:36:12;0.83;;;0.50;;
17091;SDS011;8661;45.700;4.880;2023-04-15T11:38:44;1.03;;;0.57;;
17091;SDS011;8661;45.700;4.880;2023-04-15T11:41:13;0.30;;;0.30;;
17091;SDS011;8661;45.700;4.880;2023-04-15T11:43:41;0.60;;;0.50;;
17091;SDS011;8661;45.700;4.880;2023-04-15T11:46:11;0.93;;;0.33;;
17091;SDS011;8661;45.700;4.880;2023-04-15T11:48:40;0.87;;;0.40;;
17091;SDS011;8661;45.700;4.880;2023-04-15T11:51:09;0.63;;;0.50;;
17091;SDS011;8661;45.700;4.880;2023-04-15T11:53:38;0.53;;;0.53;;
17091;SDS011;8661;45.700;4.880;2023-04-15T11:56:07;0.43;;;0.40;;
17091;SDS011;8661;45.700;4.880;2023-04-15T11:58:36;0.43;;;0.30;;
17091;SDS011;8661;45.700;4.880;2023-04-15T12:01:04;1.77;;;0.30;;
17091;SDS011;8661;45.700;4.880;2023-04-15T12:03:38;0.70;;;0.40;;
17091;SDS011;8661;45.700;4.880;2023-04-15T12:06:10;0.20;;;0.20;;
17091;SDS011;8661;45.700;4.880;2023-04-15T12:08:51;2.37;;;0.50;;
17091;SDS011;8661;45.700;4.880;2023-04-15T12:11:27;0.40;;;0.20;;
17091;SDS011;8661;45.700;4.880;2023-04-15T12:14:17;0.30;;;0.30;;
17091;SDS011;8661;45.700;4.880;2023-04-15T12:16:51;0.40;;;0.40;;
17091;SDS011;8661;45.700;4.880;2023-04-15T12:19:24;0.87;;;0.43;;
17091;SDS011;8661;45.700;4.880;2023-04-15T12:21:56;0.60;;;0.50;;
17091;SDS011;8661;45.700;4.880;2023-04-15T12:24:26;0.57;;;0.50;;
17091;SDS011;8661;45.700;4.880;2023-04-15T12:26:56;0.40;;;0.30;;
17091;SDS011;8661;45.700;4.880;2023-04-15T12:29:27;1.10;;;0.73;;
17091;SDS011;8661;45.700;4.880;2023-04-15T12:31:56;0.60;;;0.60;;
17091;SDS011;8661;45.700;4.880;2023-04-15T12:34:30;1.10;;;0.80;;
17091;SDS011;8661;45.700;4.880;2023-04-15T12:37:00;0.90;;;0.83;;
17091;SDS011;8661;45.700;4.880;2023-04-15T12:39:34;0.40;;;0.40;;
17091;SDS011;8661;45.700;4.880;2023-04-15T12:42:03;0.50;;;0.50;;
17091;SDS011;8661;45.700;4.880;2023-04-15T12:44:31;3.53;;;0.60;;
17091;SDS011;8661;45.700;4.880;2023-04-15T12:47:00;0.60;;;0.40;;
17091;SDS011;8661;45.700;4.880;2023-04-15T12:49:30;0.40;;;0.30;;
17091;SDS011;8661;45.700;4.880;2023-04-15T12:51:59;1.10;;;0.70;;
17091;SDS011;8661;45.700;4.880;2023-04-15T12:54:40;0.40;;;0.30;;
17091;SDS011;8661;45.700;4.880;2023-04-15T12:57:08;0.60;;;0.30;;
17091;SDS011;8661;45.700;4.880;2023-04-15T12:59:35;0.40;;;0.40;;
17091;SDS011;8661;45.700;4.880;2023-04-15T13:02:03;0.73;;;0.50;;
17091;SDS011;8661;45.700;4.880;2023-04-15T13:04:32;0.97;;;0.50;;
17091;SDS011;8661;45.700;4.880;2023-04-15T13:07:00;0.40;;;0.40;;
17091;SDS011;8661;45.700;4.880;2023-04-15T13:09:28;0.87;;;0.40;;
17091;SDS011;8661;45.700;4.880;2023-04-15T13:11:56;0.77;;;0.50;;
17091;SDS011;8661;45.700;4.880;2023-04-15T13:14:23;2.17;;;0.60;;
17091;SDS011;8661;45.700;4.880;2023-04-15T13:16:51;0.40;;;0.40;;
17091;SDS011;8661;45.700;4.880;2023-04-15T13:19:19;0.50;;;0.50;;
17091;SDS011;8661;45.700;4.880;2023-04-15T13:21:49;1.57;;;0.40;;
17091;SDS011;8661;45.700;4.880;2023-04-15T13:24:21;0.33;;;0.33;;
17091;SDS011;8661;45.700;4.880;2023-04-15T13:27:26;0.73;;;0.47;;
17091;SDS011;8661;45.700;4.880;2023-04-15T13:29:54;0.67;;;0.33;;
17091;SDS011;8661;45.700;4.880;2023-04-15T13:32:26;0.50;;;0.50;;
17091;SDS011;8661;45.700;4.880;2023-04-15T13:35:12;1.13;;;0.40;;
17091;SDS011;8661;45.700;4.880;2023-04-15T13:37:43;0.57;;;0.50;;
17091;SDS011;8661;45.700;4.880;2023-04-15T13:40:10;1.10;;;0.50;;
17091;SDS011;8661;45.700;4.880;2023-04-15T13:42:43;0.50;;;0.50;;
17091;SDS011;8661;45.700;4.880;2023-04-15T13:45:28;0.60;;;0.60;;
17091;SDS011;8661;45.700;4.880;2023-04-15T13:48:14;2.77;;;0.60;;
17091;SDS011;8661;45.700;4.880;2023-04-15T13:51:16;1.00;;;0.60;;
17091;SDS011;8661;45.700;4.880;2023-04-15T13:57:05;1.30;;;0.70;;
17091;SDS011;8661;45.700;4.880;2023-04-15T13:59:35;0.50;;;0.50;;
17091;SDS011;8661;45.700;4.880;2023-04-15T14:02:44;2.23;;;0.70;;
17091;SDS011;8661;45.700;4.880;2023-04-15T14:05:15;0.70;;;0.63;;
17091;SDS011;8661;45.700;4.880;2023-04-15T14:07:43;0.80;;;0.63;;
17091;SDS011;8661;45.700;4.880;2023-04-15T14:10:13;2.13;;;0.77;;
17091;SDS011;8661;45.700;4.880;2023-04-15T14:12:40;1.07;;;0.73;;
17091;SDS011;8661;45.700;4.880;2023-04-15T14:15:08;1.43;;;0.60;;
17091;SDS011;8661;45.700;4.880;2023-04-15T14:17:36;0.40;;;0.40;;
17091;SDS011;8661;45.700;4.880;2023-04-15T14:20:05;1.50;;;0.60;;
17091;SDS011;8661;45.700;4.880;2023-04-15T14:22:34;1.07;;;0.50;;
17091;SDS011;8661;45.700;4.880;2023-04-15T14:25:01;0.50;;;0.50;;
17091;SDS011;8661;45.700;4.880;2023-04-15T14:27:32;1.27;;;0.70;;
17091;SDS011;8661;45.700;4.880;2023-04-15T14:29:59;1.10;;;0.53;;
17091;SDS011;8661;45.700;4.880;2023-04-15T14:32:27;0.87;;;0.80;;
17091;SDS011;8661;45.700;4.880;2023-04-15T14:34:55;0.77;;;0.77;;
17091;SDS011;8661;45.700;4.880;2023-04-15T14:37:23;1.17;;;0.80;;
17091;SDS011;8661;45.700;4.880;2023-04-15T14:39:50;0.67;;;0.67;;
17091;SDS011;8661;45.700;4.880;2023-04-15T14:42:18;0.93;;;0.70;;
17091;SDS011;8661;45.700;4.880;2023-04-15T14:44:47;1.13;;;0.60;;
17091;SDS011;8661;45.700;4.880;2023-04-15T14:47:14;2.70;;;0.70;;
17091;SDS011;8661;45.700;4.880;2023-04-15T14:49:42;0.50;;;0.50;;
17091;SDS011;8661;45.700;4.880;2023-04-15T14:52:09;0.60;;;0.60;;
17091;SDS011;8661;45.700;4.880;2023-04-15T14:54:38;0.70;;;0.70;;
17091;SDS011;8661;45.700;4.880;2023-04-15T14:57:05;2.43;;;0.60;;
17091;SDS011;8661;45.700;4.880;2023-04-15T14:59:33;0.93;;;0.77;;
17091;SDS011;8661;45.700;4.880;2023-04-15T15:02:04;2.03;;;0.77;;
17091;SDS011;8661;45.700;4.880;2023-04-15T15:04:31;1.13;;;0.70;;
17091;SDS011;8661;45.700;4.880;2023-04-15T15:07:00;0.80;;;0.70;;
17091;SDS011;8661;45.700;4.880;2023-04-15T15:09:29;1.23;;;0.83;;
17091;SDS011;8661;45.700;4.880;2023-04-15T15:11:57;1.40;;;0.70;;
17091;SDS011;8661;45.700;4.880;2023-04-15T15:14:25;0.60;;;0.60;;
17091;SDS011;8661;45.700;4.880;2023-04-15T15:16:53;1.10;;;0.77;;